Time;durP1;ratioP1;P1;durP2;ratioP2;P2;SDS_P1;SDS_P2;PMS_P1;PMS_P2;Temp;Humidity;BMP_temperature;BMP_pressure;BME280_temperature;BME280_humidity;BME280_pressure;Samples;Min_cycle;Max_cycle;Signal;HPM_P1;HPM_P2
2024/04/03 00:00:54;;;;;;;6.77;1.30;;;8.80;99.90;;;;;;4212667;28;20236;-78
2024/04/03 00:02:55;;;;;;;8.27;1.60;;;8.70;99.90;;;;;;4210764;28;20219;-78
2024/04/03 00:04:57;;;;;;;6.20;1.53;;;8.70;99.90;;;;;;4213546;28;20212;-78
2024/04/03 00:06:58;;;;;;;6.13;1.40;;;8.70;99.90;;;;;;4221521;28;20651;-79
2024/04/03 00:09:00;;;;;;;4.10;1.20;;;8.70;99.90;;;;;;4225326;28;20207;-78
2024/04/03 00:11:01;;;;;;;5.27;1.43;;;8.70;99.90;;;;;;4220991;28;20635;-78
2024/04/03 00:13:02;;;;;;;6.17;1.13;;;8.70;99.90;;;;;;4225052;28;20203;-78
2024/04/03 00:15:05;;;;;;;3.10;1.20;;;8.60;99.90;;;;;;4213568;28;20222;-78
2024/04/03 00:17:07;;;;;;;7.87;1.80;;;8.60;99.90;;;;;;4212334;28;20208;-78
2024/04/03 00:19:09;;;;;;;3.90;1.30;;;8.60;99.90;;;;;;4213382;28;20213;-78
2024/04/03 00:21:10;;;;;;;7.03;1.60;;;8.50;99.90;;;;;;4213063;28;20249;-78
2024/04/03 00:23:12;;;;;;;6.10;1.80;;;8.50;99.90;;;;;;4195066;28;20299;-78
2024/04/03 00:25:16;;;;;;;5.80;1.73;;;8.50;99.90;;;;;;4213675;28;20328;-78
2024/04/03 00:27:18;;;;;;;7.60;1.70;;;8.50;99.90;;;;;;4213412;28;20627;-78
2024/04/03 00:29:19;;;;;;;7.63;1.93;;;8.50;99.90;;;;;;4213649;28;20261;-77
2024/04/03 00:31:20;;;;;;;5.10;1.50;;;8.50;99.90;;;;;;4214509;28;20691;-78
2024/04/03 00:33:23;;;;;;;5.97;1.97;;;8.50;99.90;;;;;;4213980;28;20226;-77
2024/04/03 00:35:24;;;;;;;4.63;1.50;;;8.50;99.90;;;;;;4218754;28;20223;-78
2024/04/03 00:37:26;;;;;;;5.47;1.80;;;8.40;99.90;;;;;;4220073;28;20210;-77
2024/04/03 00:39:27;;;;;;;4.53;1.60;;;8.40;99.90;;;;;;4204197;28;20208;-77
2024/04/03 00:41:29;;;;;;;4.97;1.40;;;8.40;99.90;;;;;;4203107;28;20258;-78
2024/04/03 00:43:31;;;;;;;6.90;2.13;;;8.40;99.90;;;;;;4213765;28;20199;-78
2024/04/03 00:45:33;;;;;;;8.67;1.70;;;8.30;99.90;;;;;;4211711;28;20731;-78
2024/04/03 00:47:34;;;;;;;5.50;1.37;;;8.30;99.90;;;;;;4212325;28;20675;-78
2024/04/03 00:49:38;;;;;;;4.40;1.70;;;8.30;99.90;;;;;;4209201;28;20196;-79
2024/04/03 00:51:39;;;;;;;7.20;1.50;;;8.20;99.90;;;;;;4212006;28;20258;-78
2024/04/03 00:53:41;;;;;;;9.67;1.50;;;8.20;99.90;;;;;;4214525;28;20230;-78
2024/04/03 00:55:42;;;;;;;4.60;1.80;;;8.10;99.90;;;;;;4211656;28;20675;-79
2024/04/03 00:57:45;;;;;;;5.13;2.07;;;8.10;99.90;;;;;;4209400;28;20211;-78
2024/04/03 00:59:46;;;;;;;8.13;1.90;;;8.10;99.90;;;;;;4211746;28;20203;-78
2024/04/03 01:01:49;;;;;;;7.77;1.70;;;8.10;99.90;;;;;;4208593;28;20224;-79
2024/04/03 01:03:51;;;;;;;4.93;1.47;;;8.10;99.90;;;;;;4212171;28;20694;-79
2024/04/03 01:06:01;;;;;;;4.80;1.63;;;8.10;99.90;;;;;;4211479;28;20744;-77
2024/04/03 01:08:03;;;;;;;6.07;1.93;;;8.10;99.90;;;;;;4210125;28;20305;-79
2024/04/03 01:10:06;;;;;;;6.57;1.90;;;8.10;99.90;;;;;;4210005;28;20203;-78
2024/04/03 01:12:08;;;;;;;6.43;1.90;;;8.10;99.90;;;;;;4212066;28;20311;-78
2024/04/03 01:14:10;;;;;;;5.83;2.47;;;8.10;99.90;;;;;;4212197;28;20238;-78
2024/04/03 01:16:10;;;;;;;6.10;1.83;;;8.10;99.90;;;;;;4211556;28;20239;-78
2024/04/03 01:18:12;;;;;;;8.50;2.47;;;8.10;99.90;;;;;;4212033;28;20427;-78
2024/04/03 01:20:14;;;;;;;10.10;2.03;;;8.10;99.90;;;;;;4212037;28;20246;-78
2024/04/03 01:22:17;;;;;;;4.20;1.80;;;8.10;99.90;;;;;;4211521;28;20201;-78
2024/04/03 01:24:22;;;;;;;8.20;2.40;;;8.10;99.90;;;;;;4211219;28;20195;-78
2024/04/03 01:26:25;;;;;;;7.93;1.87;;;8.10;99.90;;;;;;4211988;28;20215;-78
2024/04/03 01:28:26;;;;;;;10.73;1.90;;;8.10;99.90;;;;;;4213143;28;20210;-78
2024/04/03 01:30:31;;;;;;;13.37;2.37;;;8.10;99.90;;;;;;4210611;28;20210;-78
2024/04/03 01:32:33;;;;;;;8.17;2.20;;;8.10;99.90;;;;;;4211877;28;20244;-77
2024/04/03 01:34:34;;;;;;;7.40;2.43;;;8.10;99.90;;;;;;4214659;28;20287;-78
2024/04/03 01:36:35;;;;;;;7.03;2.20;;;8.10;99.90;;;;;;4211286;28;20209;-78
2024/04/03 01:38:37;;;;;;;5.43;1.80;;;8.10;99.90;;;;;;4195250;28;20273;-78
2024/04/03 01:40:39;;;;;;;4.37;2.20;;;8.10;99.90;;;;;;4210523;28;20249;-78
2024/04/03 01:42:41;;;;;;;6.77;1.93;;;8.10;99.90;;;;;;4212806;28;20207;-77
2024/04/03 01:44:42;;;;;;;6.00;2.20;;;8.00;99.90;;;;;;4213492;28;20199;-77
2024/04/03 01:46:44;;;;;;;8.83;1.70;;;8.00;99.90;;;;;;4214951;28;20864;-77
2024/04/03 01:48:45;;;;;;;8.40;1.80;;;8.00;99.90;;;;;;4212141;28;20207;-78
2024/04/03 01:50:47;;;;;;;6.53;2.30;;;8.00;99.90;;;;;;4211527;28;20248;-78
2024/04/03 01:52:48;;;;;;;8.00;1.93;;;8.00;99.90;;;;;;4215783;28;20205;-78
2024/04/03 01:54:50;;;;;;;6.50;2.27;;;8.00;99.90;;;;;;4197475;28;20228;-78
2024/04/03 01:56:52;;;;;;;6.13;1.80;;;8.00;99.90;;;;;;4214280;28;20665;-78
2024/04/03 01:58:54;;;;;;;4.87;1.83;;;7.90;99.90;;;;;;4215593;28;20207;-78
2024/04/03 02:00:55;;;;;;;7.43;2.10;;;7.90;99.90;;;;;;4218624;28;20232;-78
2024/04/03 02:02:57;;;;;;;8.23;1.97;;;7.90;99.90;;;;;;4215648;28;20206;-78
2024/04/03 02:04:58;;;;;;;5.50;2.00;;;7.90;99.90;;;;;;4212212;28;20674;-78
2024/04/03 02:07:00;;;;;;;6.13;1.93;;;7.90;99.90;;;;;;4216320;28;20208;-78
2024/04/03 02:09:01;;;;;;;8.53;3.10;;;7.80;99.90;;;;;;4214265;28;20569;-78
2024/04/03 02:11:02;;;;;;;10.87;2.40;;;7.80;99.90;;;;;;4195271;28;20230;-78
2024/04/03 02:13:05;;;;;;;8.93;2.00;;;7.80;99.90;;;;;;4198775;28;20206;-77
2024/04/03 02:15:07;;;;;;;10.73;2.43;;;7.80;99.90;;;;;;4212313;28;20273;-78
2024/04/03 02:17:08;;;;;;;6.73;2.63;;;7.80;99.90;;;;;;4214450;28;20256;-78
2024/04/03 02:19:10;;;;;;;6.77;2.83;;;7.70;99.90;;;;;;4197405;28;20198;-78
2024/04/03 02:21:11;;;;;;;5.50;2.00;;;7.70;99.90;;;;;;4214405;28;20712;-78
2024/04/03 02:23:13;;;;;;;5.73;2.20;;;7.70;99.90;;;;;;4213810;28;20197;-78
2024/04/03 02:25:14;;;;;;;9.30;2.47;;;7.80;99.90;;;;;;4214968;28;20723;-78
2024/04/03 02:27:16;;;;;;;6.57;2.10;;;7.80;99.90;;;;;;4214689;28;20207;-77
2024/04/03 02:29:18;;;;;;;5.70;2.13;;;7.80;99.90;;;;;;4216204;28;20230;-77
2024/04/03 02:31:20;;;;;;;9.20;2.20;;;7.80;99.90;;;;;;4214867;28;20249;-77
2024/04/03 02:33:21;;;;;;;10.63;2.50;;;7.80;99.90;;;;;;4211760;28;20658;-77
2024/04/03 02:35:23;;;;;;;7.83;2.50;;;7.80;99.90;;;;;;4195216;28;20239;-77
2024/04/03 02:37:24;;;;;;;7.03;1.87;;;7.70;99.90;;;;;;4214337;28;20581;-77
2024/04/03 02:39:26;;;;;;;8.50;1.80;;;7.70;99.90;;;;;;4213682;28;20206;-77
2024/04/03 02:41:27;;;;;;;6.10;1.80;;;7.70;99.90;;;;;;4214684;28;20242;-77
2024/04/03 02:43:29;;;;;;;4.10;1.70;;;7.70;99.90;;;;;;4219671;28;20205;-77
2024/04/03 02:45:31;;;;;;;10.63;1.97;;;7.70;99.90;;;;;;4225072;28;20259;-77
2024/04/03 02:47:34;;;;;;;5.07;1.73;;;7.70;99.90;;;;;;4228651;28;20199;-76
2024/04/03 02:49:35;;;;;;;7.00;1.70;;;7.70;99.90;;;;;;4232157;28;20315;-77
2024/04/03 02:51:37;;;;;;;5.90;1.60;;;7.70;99.90;;;;;;4213138;28;20222;-77
2024/04/03 02:53:38;;;;;;;8.37;1.70;;;7.70;99.90;;;;;;4232097;28;20620;-77
2024/04/03 02:55:40;;;;;;;9.53;1.50;;;7.60;99.90;;;;;;4224255;28;20232;-77
2024/04/03 02:57:41;;;;;;;7.77;1.80;;;7.60;99.90;;;;;;4214958;28;20961;-77
2024/04/03 02:59:43;;;;;;;7.03;1.70;;;7.70;99.90;;;;;;4197660;28;20190;-77
2024/04/03 03:01:45;;;;;;;7.60;1.50;;;7.70;99.90;;;;;;4215155;28;20229;-77
2024/04/03 03:03:47;;;;;;;9.77;2.07;;;7.70;99.90;;;;;;4213529;28;20666;-77
2024/04/03 03:05:49;;;;;;;7.33;1.33;;;7.70;99.90;;;;;;4198827;28;20221;-77
2024/04/03 03:07:51;;;;;;;5.63;1.50;;;7.70;99.90;;;;;;4216490;28;20865;-77
2024/04/03 03:09:52;;;;;;;5.60;1.40;;;7.70;99.90;;;;;;4216366;28;20577;-77
2024/04/03 03:11:54;;;;;;;7.67;1.50;;;7.70;99.90;;;;;;4210253;28;20227;-77
2024/04/03 03:13:55;;;;;;;6.70;1.30;;;7.70;99.90;;;;;;4210942;28;20234;-77
2024/04/03 03:15:59;;;;;;;6.43;1.10;;;7.70;99.90;;;;;;4209024;28;20203;-77
2024/04/03 03:18:01;;;;;;;6.97;1.20;;;7.80;99.90;;;;;;4210405;28;20674;-77
2024/04/03 03:20:03;;;;;;;5.37;1.40;;;7.80;99.90;;;;;;4190763;28;20672;-77
2024/04/03 03:22:04;;;;;;;6.53;1.50;;;7.80;99.90;;;;;;4214878;28;20202;-77
2024/04/03 03:24:06;;;;;;;3.53;1.13;;;7.90;99.90;;;;;;4212764;28;20229;-77
2024/04/03 03:26:07;;;;;;;7.37;1.10;;;7.80;99.90;;;;;;4210229;28;20321;-77
2024/04/03 03:28:09;;;;;;;4.73;1.50;;;7.90;99.90;;;;;;4209160;28;20244;-77
2024/04/03 03:30:10;;;;;;;6.17;0.93;;;7.90;99.90;;;;;;4212596;28;20550;-76
2024/04/03 03:32:12;;;;;;;5.40;1.40;;;7.90;99.90;;;;;;4211945;28;20282;-76
2024/04/03 03:34:14;;;;;;;8.13;1.40;;;7.90;99.90;;;;;;4211665;28;20220;-76
2024/04/03 03:36:16;;;;;;;4.87;1.40;;;7.80;99.90;;;;;;4213074;28;20206;-76
2024/04/03 03:38:17;;;;;;;8.63;1.20;;;7.90;99.90;;;;;;4211475;28;20199;-77
2024/04/03 03:40:19;;;;;;;5.90;1.07;;;7.80;99.90;;;;;;4211085;28;20209;-77
2024/04/03 03:42:22;;;;;;;7.20;1.43;;;7.80;99.90;;;;;;4213208;28;20203;-78
2024/04/03 03:44:24;;;;;;;4.63;1.00;;;7.80;99.90;;;;;;4213472;28;20243;-76
2024/04/03 03:46:25;;;;;;;4.57;1.30;;;7.90;99.90;;;;;;4213185;28;20201;-79
2024/04/03 03:53:04;;;;;;;9.23;1.13;;;7.90;99.90;;;;;;4212445;28;20324;-78
2024/04/03 03:55:05;;;;;;;4.77;1.07;;;7.90;99.90;;;;;;4209524;28;20309;-78
2024/04/03 03:57:07;;;;;;;6.13;1.10;;;7.90;99.90;;;;;;4213355;28;20212;-78
2024/04/03 03:59:08;;;;;;;3.07;1.13;;;7.90;99.90;;;;;;4212728;28;20234;-78
2024/04/03 04:01:09;;;;;;;5.97;1.00;;;7.90;99.90;;;;;;4210312;28;20246;-78
2024/04/03 04:03:11;;;;;;;4.33;1.30;;;7.80;99.90;;;;;;4212361;28;20571;-78
2024/04/03 04:05:12;;;;;;;2.67;1.00;;;7.80;99.90;;;;;;4215615;28;20242;-78
2024/04/03 04:07:15;;;;;;;3.40;1.13;;;7.80;99.90;;;;;;4207764;28;20212;-78
2024/04/03 04:09:16;;;;;;;1.70;0.97;;;7.80;99.90;;;;;;4193732;28;20682;-78
2024/04/03 04:11:17;;;;;;;6.40;1.63;;;7.90;99.90;;;;;;4194383;28;20223;-78
2024/04/03 04:13:19;;;;;;;6.57;1.80;;;7.80;99.90;;;;;;4209973;28;20195;-78
2024/04/03 04:15:20;;;;;;;4.77;1.40;;;7.80;99.90;;;;;;4209257;28;20724;-78
2024/04/03 04:17:22;;;;;;;5.87;1.10;;;7.80;99.90;;;;;;4208658;28;20192;-78
2024/04/03 04:19:23;;;;;;;4.93;1.23;;;7.90;99.90;;;;;;4213306;28;20462;-78
2024/04/03 04:21:25;;;;;;;7.10;1.20;;;7.90;99.90;;;;;;4213656;28;20224;-78
2024/04/03 04:23:28;;;;;;;4.27;1.17;;;7.90;99.90;;;;;;4210858;28;20233;-77
2024/04/03 04:25:29;;;;;;;3.23;1.07;;;7.90;99.90;;;;;;4215096;28;20191;-77
2024/04/03 04:27:30;;;;;;;5.07;1.10;;;7.90;99.90;;;;;;4212207;28;20284;-77
2024/04/03 04:29:33;;;;;;;7.93;1.40;;;7.90;99.90;;;;;;4216514;28;20201;-77
2024/04/03 04:31:34;;;;;;;6.13;1.10;;;7.90;99.90;;;;;;4211332;28;20960;-76
2024/04/03 04:33:38;;;;;;;9.47;1.20;;;7.90;99.90;;;;;;4205855;28;20202;-75
2024/04/03 04:35:39;;;;;;;4.10;1.60;;;7.90;99.90;;;;;;4209747;28;20250;-75
2024/04/03 04:37:41;;;;;;;3.83;1.00;;;7.80;99.90;;;;;;4210912;28;20206;-76
2024/04/03 04:39:44;;;;;;;3.83;1.03;;;7.80;99.90;;;;;;4211867;28;20698;-75
2024/04/03 04:41:49;;;;;;;3.97;1.10;;;7.80;99.90;;;;;;4211035;28;20233;-75
2024/04/03 04:43:50;;;;;;;5.33;1.10;;;7.80;99.90;;;;;;4214815;28;20543;-76
2024/04/03 04:45:59;;;;;;;5.47;1.03;;;7.80;99.90;;;;;;4211412;28;20202;-75
2024/04/03 04:48:00;;;;;;;5.63;1.30;;;7.80;99.90;;;;;;4209164;28;20269;-76
2024/04/03 04:50:02;;;;;;;7.27;1.30;;;7.80;99.90;;;;;;4212783;28;20573;-75
2024/04/03 04:52:03;;;;;;;6.20;1.20;;;7.80;99.90;;;;;;4194971;28;20210;-75
2024/04/03 04:54:06;;;;;;;6.70;2.83;;;7.70;99.90;;;;;;4209704;28;20226;-75
2024/04/03 04:56:08;;;;;;;6.33;1.30;;;7.80;99.90;;;;;;4211089;28;20339;-75
2024/04/03 04:58:10;;;;;;;5.90;0.93;;;7.80;99.90;;;;;;4207168;28;20202;-75
2024/04/03 05:00:12;;;;;;;4.70;0.90;;;7.80;99.90;;;;;;4209909;28;20209;-75
2024/04/03 05:02:14;;;;;;;4.80;1.40;;;7.80;99.90;;;;;;4214869;28;20313;-75
2024/04/03 05:04:15;;;;;;;6.67;1.93;;;7.80;99.90;;;;;;4213886;28;20310;-76
2024/04/03 05:06:18;;;;;;;5.00;1.10;;;7.70;99.90;;;;;;4212705;28;20926;-76
2024/04/03 05:08:19;;;;;;;3.53;1.13;;;7.70;99.90;;;;;;4214572;28;20476;-75
2024/04/03 05:10:21;;;;;;;6.47;1.60;;;7.70;99.90;;;;;;4211647;28;20218;-76
2024/04/03 05:12:23;;;;;;;2.97;1.20;;;7.70;99.90;;;;;;4212154;28;20200;-76
2024/04/03 05:14:25;;;;;;;6.53;1.30;;;7.70;99.90;;;;;;4196165;28;20217;-76
2024/04/03 05:16:26;;;;;;;4.93;1.70;;;7.70;99.90;;;;;;4213362;28;20198;-76
2024/04/03 05:18:28;;;;;;;5.10;1.00;;;7.70;99.90;;;;;;4211063;28;20772;-76
2024/04/03 05:20:28;;;;;;;7.43;1.13;;;7.70;99.90;;;;;;4211875;28;20372;-75
2024/04/03 05:22:31;;;;;;;2.67;0.90;;;7.70;99.90;;;;;;4212589;28;20209;-76
2024/04/03 05:24:32;;;;;;;3.87;1.30;;;7.60;99.90;;;;;;4213998;28;20713;-76
2024/04/03 05:26:36;;;;;;;6.10;1.07;;;7.60;99.90;;;;;;4212902;28;20202;-76
2024/04/03 05:28:39;;;;;;;6.00;1.50;;;7.60;99.90;;;;;;4209215;28;20206;-76
2024/04/03 05:30:40;;;;;;;4.97;1.30;;;7.60;99.90;;;;;;4210407;28;20246;-76
2024/04/03 05:32:42;;;;;;;3.17;1.10;;;7.60;99.90;;;;;;4193716;28;20721;-76
2024/04/03 05:34:43;;;;;;;7.50;1.23;;;7.60;99.90;;;;;;4211740;28;20231;-75
2024/04/03 05:36:45;;;;;;;5.10;0.97;;;7.60;99.90;;;;;;4193247;28;20241;-76
2024/04/03 05:38:46;;;;;;;3.07;0.80;;;7.60;99.90;;;;;;4211948;28;20204;-76
2024/04/03 05:40:48;;;;;;;3.33;1.20;;;7.60;99.90;;;;;;4210575;28;20218;-76
2024/04/03 05:42:49;;;;;;;4.23;1.10;;;7.60;99.90;;;;;;4211255;28;20214;-76
2024/04/03 05:44:52;;;;;;;4.20;0.80;;;7.70;99.90;;;;;;4209806;28;20716;-76
2024/04/03 05:46:53;;;;;;;5.60;1.17;;;7.70;99.90;;;;;;4211499;28;20236;-75
2024/04/03 05:48:55;;;;;;;4.50;1.13;;;7.70;99.90;;;;;;4193251;28;20839;-76
2024/04/03 05:51:00;;;;;;;3.27;1.00;;;7.70;99.90;;;;;;4210873;28;20224;-76
2024/04/03 05:53:02;;;;;;;3.63;1.10;;;7.80;99.90;;;;;;4210702;28;20568;-76
2024/04/03 05:55:03;;;;;;;8.57;1.37;;;7.90;99.90;;;;;;4211713;28;20254;-75
2024/04/03 05:57:05;;;;;;;3.47;1.00;;;8.00;99.90;;;;;;4211316;28;20255;-75
2024/04/03 05:59:06;;;;;;;5.43;1.20;;;8.00;99.90;;;;;;4210903;28;20204;-76
2024/04/03 06:01:09;;;;;;;3.40;1.10;;;8.00;99.90;;;;;;4211939;28;20238;-76
2024/04/03 06:03:10;;;;;;;3.90;1.20;;;8.00;99.90;;;;;;4211454;28;20211;-76
2024/04/03 06:05:12;;;;;;;3.77;1.10;;;8.00;99.90;;;;;;4211689;28;20853;-76
2024/04/03 06:07:13;;;;;;;2.40;0.93;;;8.10;99.90;;;;;;4210761;28;20294;-75
2024/04/03 06:09:15;;;;;;;4.47;1.10;;;8.20;99.90;;;;;;4211995;28;20203;-75
2024/04/03 06:11:16;;;;;;;2.87;1.03;;;8.20;99.90;;;;;;4210610;28;20235;-75
2024/04/03 06:13:18;;;;;;;6.63;1.23;;;8.30;99.90;;;;;;4212876;28;21721;-75
2024/04/03 06:15:19;;;;;;;4.90;1.00;;;8.40;99.90;;;;;;4211378;28;20221;-76
2024/04/03 06:17:22;;;;;;;4.97;1.10;;;8.50;99.90;;;;;;4211118;28;20199;-76
2024/04/03 06:19:23;;;;;;;5.50;1.10;;;8.50;99.90;;;;;;4209382;28;20709;-76
2024/04/03 06:21:25;;;;;;;2.87;1.10;;;8.70;99.90;;;;;;4211255;28;20218;-75
2024/04/03 06:23:26;;;;;;;3.33;1.00;;;8.70;99.90;;;;;;4210708;28;20208;-76
2024/04/03 06:25:28;;;;;;;5.07;1.07;;;8.80;99.90;;;;;;4210784;28;20203;-76
2024/04/03 06:27:29;;;;;;;6.57;1.10;;;8.80;99.90;;;;;;4210855;28;20796;-75
2024/04/03 06:29:31;;;;;;;7.50;1.20;;;8.90;99.90;;;;;;4210706;28;20660;-76
2024/04/03 06:31:32;;;;;;;2.93;0.80;;;9.00;99.90;;;;;;4192283;28;20312;-75
2024/04/03 06:33:35;;;;;;;5.30;1.40;;;9.10;99.90;;;;;;4210668;28;20270;-76
2024/04/03 06:35:36;;;;;;;3.13;0.90;;;9.10;99.90;;;;;;4210575;28;20241;-76
2024/04/03 06:37:40;;;;;;;3.77;1.00;;;9.10;99.90;;;;;;4212560;28;20730;-76
2024/04/03 06:39:40;;;;;;;6.47;1.13;;;9.20;99.90;;;;;;4196119;28;20592;-75
2024/04/03 06:41:43;;;;;;;3.07;1.07;;;9.20;99.90;;;;;;4218004;28;20303;-76
2024/04/03 06:43:44;;;;;;;6.33;1.37;;;9.30;99.90;;;;;;4218930;28;20734;-76
2024/04/03 06:45:55;;;;;;;7.70;1.10;;;9.30;99.90;;;;;;4216992;28;20197;-76
2024/04/03 06:47:56;;;;;;;8.23;1.20;;;9.40;99.90;;;;;;4191080;28;20714;-76
2024/04/03 06:50:00;;;;;;;4.20;1.10;;;9.40;99.90;;;;;;4196672;28;20221;-76
2024/04/03 06:52:01;;;;;;;2.70;1.10;;;9.40;99.90;;;;;;4215429;28;20228;-76
2024/04/03 06:54:03;;;;;;;4.67;1.10;;;9.40;99.90;;;;;;4215654;28;20273;-76
2024/04/03 06:56:05;;;;;;;8.23;1.20;;;9.50;99.90;;;;;;4215504;28;20216;-76
2024/04/03 06:58:06;;;;;;;2.53;1.07;;;9.50;99.90;;;;;;4214247;28;20192;-77
2024/04/03 07:00:09;;;;;;;5.30;1.60;;;9.60;99.90;;;;;;4214466;28;20653;-77
2024/04/03 07:02:11;;;;;;;3.23;0.90;;;9.60;99.90;;;;;;4213353;28;20208;-77
2024/04/03 07:04:11;;;;;;;4.00;1.03;;;9.60;99.90;;;;;;4214526;28;20270;-77
2024/04/03 07:06:15;;;;;;;2.77;0.80;;;9.70;99.90;;;;;;4214710;28;20204;-76
2024/04/03 07:08:16;;;;;;;8.57;0.90;;;9.70;99.90;;;;;;4213175;28;20299;-78
2024/04/03 07:10:17;;;;;;;5.60;1.00;;;9.80;99.90;;;;;;4195382;28;20288;-78
2024/04/03 07:12:18;;;;;;;5.90;1.80;;;9.80;99.90;;;;;;4193025;28;20291;-77
2024/04/03 07:14:21;;;;;;;5.47;1.40;;;9.90;99.90;;;;;;4213691;28;20676;-77
2024/04/03 07:16:24;;;;;;;4.63;1.30;;;10.00;99.90;;;;;;4194473;28;20231;-77
2024/04/03 07:18:26;;;;;;;2.77;1.10;;;9.90;99.90;;;;;;4214973;28;20264;-77
2024/04/03 07:20:28;;;;;;;5.83;1.30;;;10.00;99.90;;;;;;4213937;28;20637;-77
2024/04/03 07:22:32;;;;;;;4.30;1.00;;;10.10;99.90;;;;;;4212127;28;20201;-76
2024/04/03 07:24:33;;;;;;;6.90;1.20;;;10.10;99.90;;;;;;4212174;28;20207;-76
2024/04/03 07:26:35;;;;;;;4.10;1.30;;;10.10;99.90;;;;;;4214192;28;20201;-77
2024/04/03 07:28:36;;;;;;;4.40;1.00;;;10.20;99.90;;;;;;4219198;28;20661;-76
2024/04/03 07:30:39;;;;;;;3.23;1.00;;;10.20;99.90;;;;;;4218763;28;20888;-76
2024/04/03 07:32:41;;;;;;;3.63;1.13;;;10.30;99.90;;;;;;4218776;28;20216;-75
2024/04/03 07:34:43;;;;;;;3.13;1.00;;;10.30;99.90;;;;;;4219604;28;20249;-76
2024/04/03 07:36:44;;;;;;;4.00;0.97;;;10.30;99.90;;;;;;4216262;28;20216;-76
2024/04/03 07:38:49;;;;;;;4.50;1.57;;;10.30;99.90;;;;;;4214730;28;20695;-77
2024/04/03 07:40:51;;;;;;;5.17;1.23;;;10.30;99.90;;;;;;4214391;28;20227;-76
2024/04/03 07:42:53;;;;;;;3.10;1.13;;;10.30;99.90;;;;;;4212514;28;20201;-76
2024/04/03 07:44:54;;;;;;;4.87;1.40;;;10.50;99.90;;;;;;4192252;28;20222;-76
2024/04/03 07:46:56;;;;;;;4.87;1.50;;;10.60;99.90;;;;;;4211829;28;20206;-77
2024/04/03 07:48:57;;;;;;;3.57;1.30;;;10.70;99.90;;;;;;4212847;28;20684;-77
2024/04/03 07:51:00;;;;;;;4.50;1.17;;;10.80;99.90;;;;;;4211513;28;20213;-77
2024/04/03 07:53:01;;;;;;;2.90;1.00;;;10.90;99.90;;;;;;4213280;28;20295;-77
2024/04/03 07:55:05;;;;;;;4.07;1.10;;;11.00;99.90;;;;;;4214509;28;20272;-77
2024/04/03 07:57:07;;;;;;;3.23;1.00;;;11.10;99.90;;;;;;4215924;28;20201;-77
2024/04/03 07:59:09;;;;;;;6.23;1.33;;;11.20;99.90;;;;;;4214293;28;20650;-76
2024/04/03 08:01:13;;;;;;;4.93;1.07;;;11.20;99.90;;;;;;4212625;28;20231;-78
2024/04/03 08:03:15;;;;;;;6.33;1.27;;;11.30;99.90;;;;;;4194241;28;20620;-78
2024/04/03 08:05:16;;;;;;;4.30;1.40;;;11.40;99.90;;;;;;4213808;28;20211;-77
2024/04/03 08:07:17;;;;;;;3.93;0.93;;;11.40;99.90;;;;;;4212111;28;20198;-77
2024/04/03 08:09:19;;;;;;;5.40;1.20;;;11.40;99.90;;;;;;4215042;28;20201;-76
2024/04/03 08:11:22;;;;;;;7.83;1.50;;;11.50;99.90;;;;;;4212415;28;20218;-77
2024/04/03 08:13:24;;;;;;;3.70;1.23;;;11.60;99.90;;;;;;4211193;28;20601;-78
2024/04/03 08:15:25;;;;;;;3.77;1.30;;;11.60;99.90;;;;;;4212223;28;20222;-78
2024/04/03 08:17:28;;;;;;;4.73;1.20;;;11.70;99.90;;;;;;4211158;28;20197;-78
2024/04/03 08:19:29;;;;;;;5.13;1.27;;;11.70;99.90;;;;;;4194171;28;20712;-78
2024/04/03 08:21:31;;;;;;;4.90;1.40;;;11.90;99.90;;;;;;4212614;28;20259;-78
2024/04/03 08:23:33;;;;;;;4.00;1.20;;;11.90;99.90;;;;;;4213046;28;20683;-78
2024/04/03 08:25:37;;;;;;;6.73;1.40;;;11.90;99.90;;;;;;4194883;28;20290;-78
2024/04/03 08:27:39;;;;;;;9.73;1.40;;;12.00;99.90;;;;;;4212475;28;20210;-78
2024/04/03 08:29:43;;;;;;;5.27;1.50;;;12.00;99.90;;;;;;4214184;28;20202;-78
2024/04/03 08:31:44;;;;;;;8.17;1.40;;;12.00;99.90;;;;;;4211191;28;20703;-78
2024/04/03 08:33:45;;;;;;;2.53;1.10;;;12.00;99.90;;;;;;4214621;28;20208;-78
2024/04/03 08:35:47;;;;;;;5.03;1.40;;;12.00;99.90;;;;;;4214384;28;20874;-77
2024/04/03 08:37:48;;;;;;;4.80;1.27;;;12.10;99.90;;;;;;4214232;28;20206;-77
2024/04/03 08:39:51;;;;;;;5.53;1.43;;;12.10;99.90;;;;;;4212620;28;20688;-77
2024/04/03 08:41:56;;;;;;;5.90;1.70;;;12.20;99.90;;;;;;4193871;28;20228;-77
2024/04/03 08:44:00;;;;;;;4.27;1.40;;;12.20;99.90;;;;;;4221953;28;20214;-77
2024/04/03 08:46:01;;;;;;;6.37;1.30;;;12.20;99.90;;;;;;4220769;28;20269;-77
2024/04/03 08:48:05;;;;;;;5.93;1.20;;;12.20;99.90;;;;;;4218505;28;20201;-77
2024/04/03 08:50:06;;;;;;;5.83;1.83;;;12.30;99.90;;;;;;4208302;28;20260;-76
2024/04/03 08:52:12;;;;;;;4.23;1.13;;;12.30;99.90;;;;;;4212268;28;20794;-78
2024/04/03 08:54:13;;;;;;;6.30;1.50;;;12.40;99.90;;;;;;4211015;28;20202;-77
2024/04/03 08:56:17;;;;;;;2.30;0.90;;;12.40;99.90;;;;;;4213157;28;20284;-76
2024/04/03 08:58:20;;;;;;;4.60;1.27;;;12.40;99.90;;;;;;4213451;28;20601;-77
2024/04/03 09:00:24;;;;;;;7.80;1.73;;;12.50;99.90;;;;;;4210118;28;20196;-76
2024/04/03 09:02:25;;;;;;;5.90;1.03;;;12.60;99.90;;;;;;4211106;28;20207;-78
2024/04/03 09:04:28;;;;;;;7.00;1.93;;;12.50;99.90;;;;;;4214524;28;20219;-78
2024/04/03 09:06:37;;;;;;;6.00;1.50;;;12.60;99.90;;;;;;4213777;28;20712;-78
2024/04/03 09:08:43;;;;;;;5.70;1.17;;;12.60;99.90;;;;;;4213566;28;20273;-78
2024/04/03 09:10:48;;;;;;;2.73;1.10;;;12.70;99.90;;;;;;4201864;28;20259;-83
2024/04/03 09:12:49;;;;;;;6.63;1.40;;;12.70;99.90;;;;;;4222255;28;20204;-77
2024/04/03 09:14:51;;;;;;;5.63;1.13;;;12.70;99.90;;;;;;4218482;28;20215;-80
2024/04/03 09:16:59;;;;;;;2.60;1.23;;;12.70;99.90;;;;;;4209169;28;20228;-77
2024/04/03 09:19:06;;;;;;;6.93;1.33;;;12.70;99.90;;;;;;4211334;28;20204;-78
2024/04/03 09:21:08;;;;;;;6.33;1.40;;;12.70;99.90;;;;;;4211524;28;20765;-76
2024/04/03 09:23:09;;;;;;;3.80;1.73;;;12.60;99.90;;;;;;4194018;28;20216;-75
2024/04/03 09:25:11;;;;;;;3.83;1.17;;;12.50;99.90;;;;;;4208767;28;20205;-77
2024/04/03 09:27:12;;;;;;;5.47;1.90;;;12.40;99.90;;;;;;4211755;28;20284;-78
2024/04/03 09:29:17;;;;;;;6.97;1.70;;;12.30;99.90;;;;;;4210354;28;20203;-76
2024/04/03 09:31:21;;;;;;;6.37;1.47;;;12.30;99.90;;;;;;4192375;28;20228;-75
2024/04/03 09:33:26;;;;;;;4.30;1.73;;;12.20;99.90;;;;;;4211820;28;20214;-78
2024/04/03 09:35:28;;;;;;;3.77;1.33;;;12.20;99.90;;;;;;4212023;28;20291;-76
2024/04/03 09:37:32;;;;;;;4.23;1.40;;;12.10;99.90;;;;;;4207855;28;20261;-77
2024/04/03 09:39:33;;;;;;;5.27;1.50;;;12.10;99.90;;;;;;4200867;28;20682;-77
2024/04/03 09:41:35;;;;;;;5.83;1.50;;;12.10;99.90;;;;;;4212477;28;20212;-77
2024/04/03 09:43:38;;;;;;;3.43;1.33;;;12.10;99.90;;;;;;4207651;28;20234;-76
2024/04/03 09:45:41;;;;;;;6.10;1.33;;;12.20;99.90;;;;;;4212646;28;20296;-78
2024/04/03 09:47:44;;;;;;;6.47;1.33;;;12.10;99.90;;;;;;4216358;28;20256;-78
2024/04/03 09:49:50;;;;;;;6.20;1.50;;;12.10;99.90;;;;;;4211421;28;20194;-77
2024/04/03 09:51:53;;;;;;;9.53;1.80;;;12.00;99.90;;;;;;4193915;28;20234;-76
2024/04/03 09:53:55;;;;;;;2.57;1.30;;;12.00;99.90;;;;;;4211523;28;20205;-76
2024/04/03 09:55:56;;;;;;;5.43;1.40;;;12.10;99.90;;;;;;4191490;28;20233;-77
2024/04/03 09:58:02;;;;;;;3.00;1.20;;;12.00;99.90;;;;;;4213481;28;20233;-76
2024/04/03 10:00:03;;;;;;;5.00;1.40;;;12.00;99.90;;;;;;4210669;28;20618;-77
2024/04/03 10:02:05;;;;;;;3.77;1.63;;;12.00;99.90;;;;;;4214742;28;20208;-77
2024/04/03 10:04:09;;;;;;;3.87;1.77;;;12.00;99.90;;;;;;4209078;28;20215;-75
2024/04/03 10:06:16;;;;;;;5.27;1.60;;;12.00;99.90;;;;;;4214544;28;20619;-77
2024/04/03 10:08:18;;;;;;;4.60;1.77;;;12.00;99.90;;;;;;4213042;28;20566;-76
2024/04/03 10:10:19;;;;;;;5.07;2.73;;;12.00;99.90;;;;;;4189396;28;20201;-76
2024/04/03 10:12:22;;;;;;;4.50;1.30;;;12.00;99.90;;;;;;4213737;28;20214;-76
2024/04/03 10:14:27;;;;;;;6.53;1.60;;;12.00;99.90;;;;;;4215686;28;20289;-76
2024/04/03 10:16:33;;;;;;;5.00;1.53;;;12.20;99.90;;;;;;4196004;28;20228;-77
2024/04/03 10:18:39;;;;;;;3.97;1.33;;;12.10;99.90;;;;;;4212592;28;20286;-77
2024/04/03 10:20:40;;;;;;;6.43;1.73;;;12.10;99.90;;;;;;4207512;28;20562;-77
2024/04/03 10:22:45;;;;;;;4.27;1.30;;;12.20;99.90;;;;;;4216406;28;20257;-76
2024/04/03 10:24:49;;;;;;;4.03;1.43;;;12.30;99.90;;;;;;4214801;28;20591;-76
2024/04/03 10:26:51;;;;;;;3.03;1.20;;;12.40;99.90;;;;;;4194787;28;20270;-76
2024/04/03 10:28:52;;;;;;;3.67;1.20;;;12.40;99.90;;;;;;4211140;28;20575;-77
2024/04/03 10:30:55;;;;;;;1.33;1.00;;;12.60;99.90;;;;;;4211821;28;20218;-76
2024/04/03 10:32:58;;;;;;;4.53;1.43;;;12.70;99.90;;;;;;4210900;28;20205;-75
2024/04/03 10:35:00;;;;;;;4.83;1.40;;;12.80;99.90;;;;;;4207987;28;20664;-77
2024/04/03 10:37:02;;;;;;;3.77;1.30;;;12.90;99.90;;;;;;4210124;28;20765;-75
2024/04/03 10:39:06;;;;;;;5.50;1.80;;;12.90;99.90;;;;;;4214766;28;20243;-75
2024/04/03 10:41:07;;;;;;;6.03;1.80;;;13.00;99.90;;;;;;4195911;28;20233;-75
2024/04/03 10:43:09;;;;;;;3.83;1.60;;;13.10;99.90;;;;;;4191167;28;20294;-76
2024/04/03 10:45:10;;;;;;;5.17;1.30;;;13.20;99.90;;;;;;4214480;28;20224;-75